Detall de PIREP

Printer-friendly versionPDF version

[2014/07/30 16:32:00]
Flight IATA:CT1004
Pilot Number:012
Company ICAO:CAT
Aircraft Type:MD11/E
PAX:122
Aircraft Registration:PAX
Departing Airport: LPFR
Destination Airport: LEPA
Alternate Airport:LEBL
Online: VATSIM
Route:NIRAK Y136 NAPES R47 ONUBA UN747 TOSTO UM445 LASPO UM871 GODOX
Flight Level:F340
No Slew and time accel
No pause
Crash detect
Detect pilot in Cockpit between each 30 and 45 minutes
16:32 Zero fuel Weight: 332820 Lbs, Fuel Weight: 49010 Lbs
16:32 VATSIM:LPFR 301600Z 26008KT CAVOK 22/17 Q1013
16:32 VATSIM:LEPA 301600Z 22013KT 9999 FEW050 27/18 Q1013 NOSIG
16:32 SUMMER CHARTER
16:33 Parking Brakes off
16:39 Take-off
16:39 Take off Weight: 380668 Lbs
16:39 Wind: 262º @ 008 Knots Heading: 279º
16:39 POS N37º 00´ 56´´ W007º 58´ 25´´
16:39 Gear Up: 197 Knots
16:39 Flaps:3 at 197 Knots
16:40 Flaps:2 at 187 Knots
16:40 Flaps:3 at 189 Knots
16:40 Flaps:2 at 190 Knots
16:40 Flaps:1 at 192 Knots
16:40 Flaps:0 at 231 Knots
16:50 TOC
16:50 Fuel Weight: 40895 Lb
16:54 Wind:262º@030 Knots Heading: 076º Ground Speed: 525 Knots Altitude 33956 ft
17:09 Wind:256º@029 Knots Heading: 066º Ground Speed: 527 Knots Altitude 33986 ft
17:24 Wind:272º@023 Knots Heading: 050º Ground Speed: 514 Knots Altitude 33992 ft
17:36 TOD
17:36 Fuel Weight: 30189 Lb
17:39 Wind:277º@027 Knots Heading: 076º Ground Speed: 481 Knots Altitude 25232 ft
17:45 Flaps:1 at 245 Knots
17:50 Flaps:2 at 222 Knots
17:50 Flaps:3 at 221 Knots
17:51 Flaps:4 at 212 Knots
17:51 Flaps:3 at 210 Knots
17:51 Flaps:4 at 210 Knots
17:51 Flaps:5 at 208 Knots
17:51 Flaps:6 at 206 Knots
17:53 Gear Down: 177 Knots
17:53 Flaps:7 at 173 Knots
17:54 Wind:225º@011 Knots Heading: 279º Ground Speed: 172 Knots Altitude 2506 ft
17:58 TouchDown:Rate -425 ft/min Speed: 149 Knots
17:58 VATSIM:LEPA 301730Z 21011KT 170V240 9999 FEW050 26/19 Q1013 NOSIG
17:58 Land
17:58 Wind:205º@011 Knots
17:58 Heading: 238º
17:58 Flight Duration: 01:19
17:58 Landing Weight: 358521 Lbs
17:58 POS N39º 32´ 48´´ E002º 44´ 35´´
18:01 Parking brakes on
18:01 Block to Block Duration: 01:28
18:01 Final Fuel: 25370 Lbls
18:01 Spent Fuel: 23639 Lbls
18:01 Flight Length: 593 NM
18:01 TOD Land Length: 114 NM

Exportar CSV

Powered by Drupal - Modified by Danger4k